Hlavní strana
METAR-TAF:

METAR-TAF

Letiště :

Mezinárodní letiště Gibraltar

Gibraltar, Gibraltar

zeměpisná šířka: 36-09N, zeměpisná délka: 005-21W, výška: 5 m

Aktuální stav počasí

Zpráva byla vytvořena před 21 minutami, v 09:50 UTC
Východoseverovýchodní vítr 9 kt
Teplota 18°C
Vlhkost vzduchu 73%
Tlak 1022 hPa
Viditelnost 10 km a více
Skoro jasno ve výšce 1800 ft

METAR: LXGB 100950Z 06009KT 9999 FEW018 18/13 Q1022 NOSIG RMK BLU BLU

Čas: 12:11 (10:11 UTC)

Předpověď počasí

Zpráva byla vytvořena před 2 hodinami a 46 minutami, v 07:25 UTC
Předpověď platná od 10 v 09 UTC do 10 v 18 UTC
Východní vítr 10 kt
Viditelnost 10 km a více
Skoro jasno ve výšce 1500 ft
Polojasno ve výšce 2500 ft
Dočasný
od 10 v 09 UTC do 10 v 18 UTC
Polojasno ve výšce 1800 ft

TAF: LXGB 100725Z 1009/1018 09010KT 9999 FEW015 SCT025 TEMPO 1009/1018 SCT018

Stav a předpovědi počasí z více než 4 000 letišť (zprávy METAR a TAF).

Červené a žluté tečky na mapě představují dostupné meteorologické stanice.

Když kurzor umístíte na tečku, zobrazí se název stanice.

Pak kliknutím zobrazíte stav a předpověď počasí.

Chcete-li změnit mapu, kliknutím na zelené tlačítko se znaménkem +mapu přiblížíte, kliknutím na zelené tlačítko se znaménkem – mapu oddálíte a kliknutím na zelené šipky přejdete na sousední mapy.


METAR-TAF: